Cromwell, New Zealand
Current Conditions -  °F | °C
As of 2:00 AM on Saturday 20 Dec 2014 (Local Time) from NZCH Reporting Station
Clear Clear  
Wind Chill: 63°   Ceiling: Unl
Heat Index: 63°   Visibility: 6mi
Dew Point: 59°   Wind: 3mph
Humidity: 88%   Direction: 90°E
Pressure: 29.77"   Gusts: NA
Location:  45.04°S, 169.2°E
Report Text: NZCH 191400Z AUTO 09003KT 9999 NCD 17/15 Q1008 NOSIG
Loading
Personal Weather Stations






























Interactive Weather Map New forecast layout! Learn more

10-Day Weather Forecast

Advertisements
Track Severe Weather on mobile